Virtual Futura



 METAR AND TAF INFORMATION
METAR FOR LERS
ADDS - METARS form results

(2056 UTC 22 September 2019)
Data provider http://aviationweather.gov/metar/data/
 
METAR text: LERS 222030Z VRB01KT 9000 FEW030 21/21 Q1014
Conditions at: LERS (REUS (CIV/MIL) , ES) observed 2030 UTC 22 September 2019
Temperature: 21.0°C (70°F)
Dewpoint: 21.0°C (70°F) [RH = 100%]
Pressure (altimeter): 29.94 inches Hg (1014.0 mb)
Winds: variable direction winds at 1 MPH (1 knots; 0.5 m/s)
Visibility: 6 miles ( 9 km)
Ceiling: at least 12,000 feet AGL
Clouds: few clouds at 3000 feet AGL
Weather: no significant weather observed at this time

METAR text: LERS 222000Z 00000KT 9000 FEW030 21/21 Q1014
Conditions at: LERS (REUS (CIV/MIL) , ES) observed 2000 UTC 22 September 2019
Temperature: 21.0°C (70°F)
Dewpoint: 21.0°C (70°F) [RH = 100%]
Pressure (altimeter): 29.94 inches Hg (1014.0 mb)
Winds: calm
Visibility: 6 miles ( 9 km)
Ceiling: at least 12,000 feet AGL
Clouds: few clouds at 3000 feet AGL
Weather: no significant weather observed at this time

Forecast for: LERS (REUS (CIV/MIL) , ES)
Text: TAF LERS 222000Z 2221/2321 VRB04KT 9999 SCT020 TX27/2313Z TN16/2305Z
Forecast period: 2100 UTC 22 September 2019 to 1200 UTC 23 September 2019
Forecast type: FROM: standard forecast or significant change
Winds: variable direction winds at 5 MPH (4 knots; 2.1 m/s)
Visibility: 6 or more miles 10+ km)
Ceiling: at least 12,000 feet AGL
Clouds: scattered clouds at 2000 feet AGL
Weather: no significant weather forecast for this period
Text: BECMG 2312/2314 20007KT
Forecast period: 1200 to 2100 UTC 23 September 2019
Forecast type: BECOMING: Conditions expected to become as follows by 1400 UTC 23 September 2019
Winds: from the SSW (200 degrees) at 8 MPH (7 knots; 3.6 m/s)
Visibility: 6 or more miles 10+ km)
Ceiling: at least 12,000 feet AGL
Clouds: scattered clouds at 2000 feet AGL
Weather: no significant weather forecast for this period

 AIRPORT MAP

 RUNWAY INFORMATION
Runway 07 Runway length 8054 ft Runway width 148 ft
Runway elevation 231 ft Runway displaced threshold 853 ft Runway heading 69
Runway 25 Runway length 8054 ft Runway width 148 ft
Runway elevation 234 ft Runway displaced threshold 0 ft Runway heading 249
Runway 12 Runway length 3117 ft Runway width 115 ft
Runway elevation 226 ft Runway displaced threshold 0 ft Runway heading 111
Runway 30 Runway length 3117 ft Runway width 115 ft
Runway elevation 198 ft Runway displaced threshold 0 ft Runway heading 291

 AIRPORT FREQUENCIES
Type APP Name APP Frequency 118.15 MHZ
Type GND Name GND Frequency 121.7 MHZ
Type TWR Name TWR Frequency 118.15 MHZ

 AIRPORT NEAR NAVIGATION AIDS
Type VOR-DME Name Reus Frequency 114200 KHZ
Type NDB Name Reus Frequency 424 KHZ

Poltica de Cookies

Esta web utiliza cookies para obtener datos estadsticos de la navegacin de sus usuarios. Si continas navegando consideramos que aceptas su uso. Ms informacin X Cerrar